PWSweather.com
Personal Weather Stations
Station Observations
KOMOKA
Komoka Village, Komoka, ON N0L IRO

Komoka VillageKomoka, ON N0L IRO

Lat: 42.9542444, Lon: -81.4348861

Elevation: 805

Station Type: Davis Vantage Pro 2

Latest ConditionsUpdated 8:15:28 AM EDT Thursday, Jun 29, 2017
Currently Today's Max Today's Min Today's Average
Temperature 67.5°F19.7°C 68.2°F20.1°C 61.3°F16.3°C 65.0°F18.3°C
Dew Point 61.0°F16.1°C 61.0°F16.1°C 57.7°F14.3°C 59.8°F15.4°C
Winds 1.0 mph S1.6 kmh S 4.0 mph SSW6.4 kmh SSW - 1.0 mph 1.6 kmh
Wind Gusts 8.0 mph12.9 kmh 20.0 mph32.2 kmh - -
Humidity 80% 89% 75% 83%
Pressure 29.83 in1010.2 mb 29.97 in1014.9 mb 29.83 in1010.2 mb -
Precipitation - 0.01 in0.3 mm - -
Hour Temp Dew Point Humidity Winds Wind Gusts Pressure Precip Precip Rate Daily Precip Total
08:15 AM 67.5°F19.7°C 61.0°F16.1°C 80% 1.0 mph S1.6 kmh S 8.0 mph12.9 kmh 29.83 in1010.2 mb 0.00 in0.0 mm 0.00 in0.0 mm 0.01 in0.3 mm
08:08 AM 67.5°F19.7°C 61.0°F16.1°C 80% 1.0 mph SSW1.6 kmh SSW 8.0 mph12.9 kmh 29.83 in1010.2 mb 0.00 in0.0 mm 0.00 in0.0 mm 0.01 in0.3 mm
08:01 AM 67.5°F19.7°C 60.8°F16.0°C 79% Calm Calm 5.0 mph8.0 kmh 29.83 in1010.2 mb 0.00 in0.0 mm 0.00 in0.0 mm 0.01 in0.3 mm
07:54 AM 67.6°F19.8°C 60.8°F16.0°C 79% 1.0 mph SSW1.6 kmh SSW 12.0 mph19.3 kmh 29.83 in1010.2 mb 0.00 in0.0 mm 0.00 in0.0 mm 0.01 in0.3 mm
07:47 AM 67.5°F19.7°C 60.4°F15.8°C 78% 1.0 mph SSW1.6 kmh SSW 12.0 mph19.3 kmh 29.84 in1010.5 mb 0.00 in0.0 mm 0.00 in0.0 mm 0.01 in0.3 mm
07:40 AM 67.5°F19.7°C 60.6°F15.9°C 79% 1.0 mph SSW1.6 kmh SSW 8.0 mph12.9 kmh 29.84 in1010.5 mb 0.00 in0.0 mm 0.00 in0.0 mm 0.01 in0.3 mm
07:33 AM 67.5°F19.7°C 60.3°F15.7°C 78% 1.0 mph SSW1.6 kmh SSW 12.0 mph19.3 kmh 29.83 in1010.2 mb 0.00 in0.0 mm 0.00 in0.0 mm 0.01 in0.3 mm
07:26 AM 67.5°F19.7°C 60.4°F15.8°C 78% 1.0 mph SSW1.6 kmh SSW 12.0 mph19.3 kmh 29.84 in1010.5 mb 0.00 in0.0 mm 0.00 in0.0 mm 0.01 in0.3 mm
07:19 AM 67.6°F19.8°C 60.4°F15.8°C 78% 1.0 mph S1.6 kmh S 12.0 mph19.3 kmh 29.84 in1010.5 mb 0.00 in0.0 mm 0.00 in0.0 mm 0.01 in0.3 mm
07:12 AM 67.6°F19.8°C 60.3°F15.7°C 77% 1.0 mph S1.6 kmh S 9.0 mph14.5 kmh 29.84 in1010.5 mb 0.00 in0.0 mm 0.00 in0.0 mm 0.01 in0.3 mm
07:05 AM 67.8°F19.9°C 60.1°F15.6°C 76% 1.0 mph SSW1.6 kmh SSW 16.0 mph25.7 kmh 29.84 in1010.5 mb 0.00 in0.0 mm 0.00 in0.0 mm 0.01 in0.3 mm
06:58 AM 68.0°F20.0°C 60.1°F15.6°C 76% 1.0 mph S1.6 kmh S 16.0 mph25.7 kmh 29.84 in1010.5 mb 0.00 in0.0 mm 0.00 in0.0 mm 0.01 in0.3 mm
06:51 AM 68.0°F20.0°C 59.7°F15.4°C 75% 3.0 mph SSW4.8 kmh SSW 15.0 mph24.1 kmh 29.84 in1010.5 mb 0.00 in0.0 mm 0.00 in0.0 mm 0.01 in0.3 mm
06:44 AM 68.0°F20.0°C 59.7°F15.4°C 75% 1.0 mph SW1.6 kmh SW 15.0 mph24.1 kmh 29.84 in1010.5 mb 0.00 in0.0 mm 0.00 in0.0 mm 0.01 in0.3 mm
06:37 AM 68.2°F20.1°C 59.9°F15.5°C 75% 3.0 mph SW4.8 kmh SW 15.0 mph24.1 kmh 29.83 in1010.2 mb 0.00 in0.0 mm 0.00 in0.0 mm 0.01 in0.3 mm
06:30 AM 68.2°F20.1°C 59.9°F15.5°C 75% 4.0 mph SSW6.4 kmh SSW 15.0 mph24.1 kmh 29.83 in1010.2 mb 0.00 in0.0 mm 0.00 in0.0 mm 0.01 in0.3 mm
06:23 AM 68.0°F20.0°C 59.7°F15.4°C 75% 4.0 mph SSW6.4 kmh SSW 15.0 mph24.1 kmh 29.83 in1010.2 mb 0.00 in0.0 mm 0.00 in0.0 mm 0.01 in0.3 mm
06:16 AM 67.8°F19.9°C 59.5°F15.3°C 75% 3.0 mph SW4.8 kmh SW 15.0 mph24.1 kmh 29.84 in1010.5 mb 0.00 in0.0 mm 0.00 in0.0 mm 0.01 in0.3 mm
06:09 AM 67.6°F19.8°C 59.9°F15.5°C 76% 1.0 mph S1.6 kmh S 15.0 mph24.1 kmh 29.84 in1010.5 mb 0.00 in0.0 mm 0.00 in0.0 mm 0.01 in0.3 mm
06:02 AM 67.6°F19.8°C 59.7°F15.4°C 76% 3.0 mph S4.8 kmh S 20.0 mph32.2 kmh 29.85 in1010.8 mb 0.00 in0.0 mm 0.00 in0.0 mm 0.01 in0.3 mm
05:55 AM 67.5°F19.7°C 60.1°F15.6°C 77% 3.0 mph SSW4.8 kmh SSW 13.0 mph20.9 kmh 29.85 in1010.8 mb 0.00 in0.0 mm 0.00 in0.0 mm 0.01 in0.3 mm
05:48 AM 67.5°F19.7°C 60.1°F15.6°C 77% 3.0 mph SW4.8 kmh SW 15.0 mph24.1 kmh 29.85 in1010.8 mb 0.00 in0.0 mm 0.00 in0.0 mm 0.01 in0.3 mm
05:41 AM 67.5°F19.7°C 59.9°F15.5°C 77% 3.0 mph SSW4.8 kmh SSW 13.0 mph20.9 kmh 29.85 in1010.8 mb 0.00 in0.0 mm 0.00 in0.0 mm 0.01 in0.3 mm
05:34 AM 67.3°F19.6°C 60.3°F15.7°C 78% 3.0 mph SSW4.8 kmh SSW 15.0 mph24.1 kmh 29.84 in1010.5 mb 0.00 in0.0 mm 0.00 in0.0 mm 0.01 in0.3 mm
05:27 AM 67.3°F19.6°C 60.1°F15.6°C 78% 4.0 mph SSW6.4 kmh SSW 15.0 mph24.1 kmh 29.85 in1010.8 mb 0.00 in0.0 mm 0.00 in0.0 mm 0.01 in0.3 mm
05:20 AM 66.9°F19.4°C 60.3°F15.7°C 79% 3.0 mph SSW4.8 kmh SSW 15.0 mph24.1 kmh 29.85 in1010.8 mb 0.00 in0.0 mm 0.00 in0.0 mm 0.01 in0.3 mm
05:13 AM 66.9°F19.4°C 60.3°F15.7°C 79% 1.0 mph SSW1.6 kmh SSW 13.0 mph20.9 kmh 29.86 in1011.2 mb 0.00 in0.0 mm 0.00 in0.0 mm 0.01 in0.3 mm
05:06 AM 66.7°F19.3°C 60.4°F15.8°C 80% 1.0 mph SSW1.6 kmh SSW 9.0 mph14.5 kmh 29.86 in1011.2 mb 0.00 in0.0 mm 0.00 in0.0 mm 0.01 in0.3 mm
04:59 AM 66.7°F19.3°C 60.4°F15.8°C 80% 3.0 mph SSW4.8 kmh SSW 15.0 mph24.1 kmh 29.86 in1011.2 mb 0.00 in0.0 mm 0.00 in0.0 mm 0.01 in0.3 mm
04:52 AM 66.6°F19.2°C 60.6°F15.9°C 81% 1.0 mph S1.6 kmh S 15.0 mph24.1 kmh 29.86 in1011.2 mb 0.00 in0.0 mm 0.00 in0.0 mm 0.01 in0.3 mm
04:45 AM 66.4°F19.1°C 60.8°F16.0°C 82% 3.0 mph SSW4.8 kmh SSW 15.0 mph24.1 kmh 29.86 in1011.2 mb 0.00 in0.0 mm 0.00 in0.0 mm 0.01 in0.3 mm
04:38 AM 66.2°F19.0°C 60.6°F15.9°C 82% 1.0 mph SSW1.6 kmh SSW 13.0 mph20.9 kmh 29.86 in1011.2 mb 0.00 in0.0 mm 0.00 in0.0 mm 0.01 in0.3 mm
04:31 AM 66.0°F18.9°C 60.8°F16.0°C 83% 1.0 mph SSW1.6 kmh SSW 12.0 mph19.3 kmh 29.87 in1011.5 mb 0.00 in0.0 mm 0.00 in0.0 mm 0.01 in0.3 mm
04:24 AM 66.0°F18.9°C 60.6°F15.9°C 83% 1.0 mph SW1.6 kmh SW 11.0 mph17.7 kmh 29.87 in1011.5 mb 0.00 in0.0 mm 0.00 in0.0 mm 0.01 in0.3 mm
04:17 AM 65.8°F18.8°C 60.8°F16.0°C 84% 1.0 mph SSW1.6 kmh SSW 11.0 mph17.7 kmh 29.87 in1011.5 mb 0.00 in0.0 mm 0.00 in0.0 mm 0.01 in0.3 mm
04:10 AM 65.7°F18.7°C 61.0°F16.1°C 85% Calm Calm 7.0 mph11.3 kmh 29.87 in1011.5 mb 0.00 in0.0 mm 0.00 in0.0 mm 0.01 in0.3 mm
04:03 AM 65.5°F18.6°C 60.8°F16.0°C 85% 1.0 mph SSW1.6 kmh SSW 7.0 mph11.3 kmh 29.88 in1011.9 mb 0.00 in0.0 mm 0.00 in0.0 mm 0.01 in0.3 mm
03:56 AM 65.3°F18.5°C 61.0°F16.1°C 86% 1.0 mph SSW1.6 kmh SSW 9.0 mph14.5 kmh 29.88 in1011.9 mb 0.00 in0.0 mm 0.00 in0.0 mm 0.01 in0.3 mm
03:49 AM 65.1°F18.4°C 60.8°F16.0°C 86% 1.0 mph SSW1.6 kmh SSW 9.0 mph14.5 kmh 29.88 in1011.9 mb 0.00 in0.0 mm 0.00 in0.0 mm 0.01 in0.3 mm
03:42 AM 64.9°F18.3°C 61.0°F16.1°C 87% 1.0 mph SSW1.6 kmh SSW 9.0 mph14.5 kmh 29.88 in1011.9 mb 0.00 in0.0 mm 0.00 in0.0 mm 0.01 in0.3 mm
03:35 AM 64.6°F18.1°C 60.6°F15.9°C 87% Calm Calm 9.0 mph14.5 kmh 29.88 in1011.9 mb 0.00 in0.0 mm 0.00 in0.0 mm 0.01 in0.3 mm
03:28 AM 64.2°F17.9°C 60.6°F15.9°C 88% 1.0 mph SSW1.6 kmh SSW 7.0 mph11.3 kmh 29.89 in1012.2 mb 0.00 in0.0 mm 0.00 in0.0 mm 0.01 in0.3 mm
03:21 AM 64.0°F17.8°C 60.4°F15.8°C 88% Calm Calm 7.0 mph11.3 kmh 29.89 in1012.2 mb 0.00 in0.0 mm 0.00 in0.0 mm 0.01 in0.3 mm
03:14 AM 63.9°F17.7°C 60.4°F15.8°C 89% Calm Calm 5.0 mph8.0 kmh 29.90 in1012.5 mb 0.00 in0.0 mm 0.00 in0.0 mm 0.01 in0.3 mm
03:07 AM 63.5°F17.5°C 60.3°F15.7°C 89% Calm Calm 3.0 mph4.8 kmh 29.91 in1012.9 mb 0.00 in0.0 mm 0.00 in0.0 mm 0.01 in0.3 mm
03:00 AM 63.3°F17.4°C 60.1°F15.6°C 89% Calm Calm 3.0 mph4.8 kmh 29.91 in1012.9 mb 0.00 in0.0 mm 0.00 in0.0 mm 0.01 in0.3 mm
02:53 AM 63.1°F17.3°C 59.9°F15.5°C 89% Calm Calm -- 29.92 in1013.2 mb 0.00 in0.0 mm 0.00 in0.0 mm 0.01 in0.3 mm
02:46 AM 63.1°F17.3°C 59.9°F15.5°C 89% Calm Calm -- 29.93 in1013.5 mb 0.00 in0.0 mm 0.00 in0.0 mm 0.01 in0.3 mm
02:39 AM 63.1°F17.3°C 59.7°F15.4°C 89% Calm Calm -- 29.93 in1013.5 mb 0.00 in0.0 mm 0.00 in0.0 mm 0.01 in0.3 mm
02:32 AM 63.1°F17.3°C 59.7°F15.4°C 89% Calm Calm -- 29.93 in1013.5 mb 0.00 in0.0 mm 0.00 in0.0 mm 0.01 in0.3 mm
02:25 AM 63.0°F17.2°C 59.7°F15.4°C 89% Calm Calm -- 29.93 in1013.5 mb 0.00 in0.0 mm 0.00 in0.0 mm 0.01 in0.3 mm
02:18 AM 63.0°F17.2°C 59.7°F15.4°C 89% Calm Calm -- 29.93 in1013.5 mb 0.00 in0.0 mm 0.00 in0.0 mm 0.01 in0.3 mm
02:11 AM 62.8°F17.1°C 59.5°F15.3°C 89% Calm Calm -- 29.93 in1013.5 mb 0.00 in0.0 mm 0.00 in0.0 mm 0.01 in0.3 mm
02:04 AM 62.6°F17.0°C 59.4°F15.2°C 89% Calm Calm 4.0 mph6.4 kmh 29.93 in1013.5 mb 0.00 in0.0 mm 0.00 in0.0 mm 0.01 in0.3 mm
01:57 AM 62.2°F16.8°C 59.0°F15.0°C 89% Calm Calm 4.0 mph6.4 kmh 29.94 in1013.9 mb 0.00 in0.0 mm 0.00 in0.0 mm 0.01 in0.3 mm
01:50 AM 62.1°F16.7°C 58.8°F14.9°C 89% Calm Calm -- 29.94 in1013.9 mb 0.00 in0.0 mm 0.00 in0.0 mm 0.01 in0.3 mm
01:43 AM 61.9°F16.6°C 58.5°F14.7°C 89% Calm Calm -- 29.93 in1013.5 mb 0.00 in0.0 mm 0.00 in0.0 mm 0.01 in0.3 mm
01:36 AM 61.5°F16.4°C 58.3°F14.6°C 89% Calm Calm 1.0 mph1.6 kmh 29.93 in1013.5 mb 0.00 in0.0 mm 0.00 in0.0 mm 0.01 in0.3 mm
01:29 AM 61.3°F16.3°C 58.1°F14.5°C 89% Calm Calm 1.0 mph1.6 kmh 29.94 in1013.9 mb 0.01 in0.3 mm 0.00 in0.0 mm 0.01 in0.3 mm
01:22 AM 61.3°F16.3°C 58.1°F14.5°C 89% Calm Calm 3.0 mph4.8 kmh 29.95 in1014.2 mb 0.01 in0.3 mm 0.00 in0.0 mm 0.01 in0.3 mm
01:15 AM 61.3°F16.3°C 58.1°F14.5°C 89% Calm Calm 3.0 mph4.8 kmh 29.94 in1013.9 mb 0.01 in0.3 mm 0.00 in0.0 mm 0.01 in0.3 mm
01:08 AM 61.3°F16.3°C 58.1°F14.5°C 89% Calm Calm -- 29.95 in1014.2 mb 0.01 in0.3 mm 0.00 in0.0 mm 0.01 in0.3 mm
01:01 AM 61.3°F16.3°C 58.1°F14.5°C 89% Calm Calm -- 29.96 in1014.6 mb 0.01 in0.3 mm 0.00 in0.0 mm 0.01 in0.3 mm
12:54 AM 61.3°F16.3°C 58.1°F14.5°C 89% Calm Calm -- 29.96 in1014.6 mb 0.01 in0.3 mm 0.00 in0.0 mm 0.01 in0.3 mm
12:47 AM 61.3°F16.3°C 58.1°F14.5°C 89% Calm Calm -- 29.96 in1014.6 mb 0.01 in0.3 mm 0.00 in0.0 mm 0.01 in0.3 mm
12:40 AM 61.3°F16.3°C 57.7°F14.3°C 88% Calm Calm -- 29.97 in1014.9 mb 0.01 in0.3 mm 0.09 in2.3 mm 0.01 in0.3 mm
12:33 AM 61.3°F16.3°C 58.1°F14.5°C 89% Calm Calm -- 29.96 in1014.6 mb 0.00 in0.0 mm 0.00 in0.0 mm 0.01 in0.3 mm
12:26 AM 61.3°F16.3°C 58.1°F14.5°C 89% Calm Calm 1.0 mph1.6 kmh 29.96 in1014.6 mb 0.00 in0.0 mm 0.00 in0.0 mm 0.00 in0.0 mm
12:19 AM 61.3°F16.3°C 57.7°F14.3°C 88% Calm Calm 1.0 mph1.6 kmh 29.96 in1014.6 mb 0.00 in0.0 mm 0.00 in0.0 mm 0.00 in0.0 mm
12:12 AM 61.3°F16.3°C 57.7°F14.3°C 88% Calm Calm 1.0 mph1.6 kmh 29.96 in1014.6 mb 0.00 in0.0 mm 0.00 in0.0 mm 0.00 in0.0 mm
12:05 AM 61.3°F16.3°C 57.7°F14.3°C 88% Calm Calm 1.0 mph1.6 kmh 29.96 in1014.6 mb 0.00 in0.0 mm 0.00 in0.0 mm 0.00 in0.0 mm